• Join FlightAware (Why Join?)
  • Login
  • US Flag 
03:17AM EDT


 

Airport Tracker/Info


-or-


 

Live Flight TrackerFlight Track Log ✈ AVN20 ✈ 16-Sep-2013 ✈ NVVV / VLI - YBBN / BNE

Flight Track Log - Related Links

Times and Time Zones

All times are in EDT time to prevent confusion due to time zone crossing. See the AVN20 flight status page for this flight to view local times or setup timezone preferences in your user account.

Time Position Orientation Groundspeed Altitude Reporting Facility
EDT Latitude Longitude Course Direction KTS MPH feet Rate Location/Type
01:24AM -18.1058 167.7566 233° Southwest  Level FlightAware Approximate
01:25AM -18.1508 167.6939 233° Southwest  Level FlightAware Approximate
01:26AM -18.1959 167.6311 233° Southwest  Level FlightAware Approximate
01:27AM -18.2409 167.5683 233° Southwest  Level FlightAware Approximate
01:28AM -18.2859 167.5055 233° Southwest  Level FlightAware Approximate
01:29AM -18.3309 167.4427 233° Southwest  Level FlightAware Approximate
01:30AM -18.3758 167.3798 233° Southwest  Level FlightAware Approximate
01:31AM -18.4208 167.3168 233° Southwest  Level FlightAware Approximate
01:32AM -18.4657 167.2539 233° Southwest  Level FlightAware Approximate
01:33AM -18.5106 167.1909 233° Southwest  Level FlightAware Approximate
01:34AM -18.5554 167.1279 233° Southwest  Level FlightAware Approximate
01:35AM -18.6003 167.0648 233° Southwest  Level FlightAware Approximate
01:36AM -18.6451 167.0017 233° Southwest  Level FlightAware Approximate
01:37AM -18.6899 166.9386 233° Southwest  Level FlightAware Approximate
01:38AM -18.7347 166.8754 233° Southwest  Level FlightAware Approximate
01:39AM -18.7795 166.8122 233° Southwest  Level FlightAware Approximate
01:40AM -18.8242 166.7490 233° Southwest  Level FlightAware Approximate
01:41AM -18.8690 166.6857 233° Southwest  Level FlightAware Approximate
01:42AM -18.9137 166.6225 233° Southwest  Level FlightAware Approximate
01:43AM -18.9583 166.5591 233° Southwest  Level FlightAware Approximate
01:44AM -19.0030 166.4958 233° Southwest  Level FlightAware Approximate
01:45AM -19.0476 166.4324 233° Southwest  Level FlightAware Approximate
01:46AM -19.0923 166.3689 233° Southwest  Level FlightAware Approximate
01:47AM -19.1369 166.3055 233° Southwest  Level FlightAware Approximate
01:48AM -19.1814 166.2420 233° Southwest  Level FlightAware Approximate
01:49AM -19.2260 166.1784 233° Southwest  Level FlightAware Approximate
01:50AM -19.2705 166.1149 233° Southwest  Level FlightAware Approximate
01:51AM -19.3150 166.0513 233° Southwest  Level FlightAware Approximate
01:52AM -19.3595 165.9876 233° Southwest  Level FlightAware Approximate
01:53AM -19.4040 165.9240 233° Southwest  Level FlightAware Approximate
01:54AM -19.4484 165.8602 233° Southwest  Level FlightAware Approximate
01:55AM -19.4928 165.7965 234° Southwest  Level FlightAware Approximate
01:56AM -19.5372 165.7327 234° Southwest  Level FlightAware Approximate
01:57AM -19.5816 165.6689 234° Southwest  Level FlightAware Approximate
01:58AM -19.6260 165.6051 234° Southwest  Level FlightAware Approximate
01:59AM -19.6703 165.5412 234° Southwest  Level FlightAware Approximate
02:00AM -19.7146 165.4773 234° Southwest  Level FlightAware Approximate
02:01AM -19.7590 165.4134 236° Southwest  Level Estimated
02:02AM -19.8033 165.3495 234° Southwest  Level FlightAware Approximate
02:03AM -19.8476 165.2855 234° Southwest  Level FlightAware Approximate
02:04AM -19.8919 165.2215 234° Southwest  Level FlightAware Approximate
02:05AM -19.9362 165.1574 234° Southwest  Level FlightAware Approximate
02:06AM -19.9804 165.0934 234° Southwest  Level FlightAware Approximate
02:07AM -20.0246 165.0292 234° Southwest  Level FlightAware Approximate
02:08AM -20.0688 164.9651 234° Southwest  Level FlightAware Approximate
02:09AM -20.1129 164.9009 234° Southwest  Level FlightAware Approximate
02:10AM -20.1571 164.8367 234° Southwest  Level FlightAware Approximate
02:10AM -21.6472 162.6188 235° Southwest 40,000  Level Aus ATC (Calculated)
02:12AM -21.7186 162.5107 235° Southwest  Level FlightAware Approximate
02:13AM -21.7552 162.4552 235° Southwest  Level FlightAware Approximate
02:13AM -21.8676 162.2834 235° Southwest 40,000  Level Aus ATC (Calculated)
02:15AM -21.9387 162.1750 235° Southwest  Level FlightAware Approximate
02:16AM -21.9752 162.1193 235° Southwest  Level FlightAware Approximate
02:16AM -22.0912 161.9410 235° Southwest 40,000  Level Aus ATC (Calculated)
02:16AM -22.1400 161.8659 235° Southwest 40,000 -120 Level Aus ATC (Calculated)
02:18AM -22.1854 161.7963 235° Southwest  Level FlightAware Approximate
02:19AM -22.2222 161.7398 235° Southwest  Level FlightAware Approximate
02:20AM -22.2589 161.6833 235° Southwest  Level FlightAware Approximate
02:21AM -22.2957 161.6268 235° Southwest  Level FlightAware Approximate
02:22AM -22.3324 161.5702 235° Southwest  Level FlightAware Approximate
02:23AM -22.3691 161.5136 235° Southwest  Level FlightAware Approximate
02:24AM -22.4058 161.4570 235° Southwest  Level FlightAware Approximate
02:25AM -22.4424 161.4003 235° Southwest  Level FlightAware Approximate
02:26AM -22.4791 161.3436 235° Southwest  Level FlightAware Approximate
02:27AM -22.5157 161.2869 235° Southwest  Level FlightAware Approximate
02:28AM -22.5523 161.2302 235° Southwest  Level FlightAware Approximate
02:29AM -22.5889 161.1734 235° Southwest  Level FlightAware Approximate
02:30AM -22.6255 161.1166 235° Southwest  Level FlightAware Approximate
02:31AM -22.6620 161.0597 235° Southwest  Level FlightAware Approximate
02:32AM -22.6985 161.0029 235° Southwest  Level FlightAware Approximate
02:33AM -22.7350 160.9460 235° Southwest  Level FlightAware Approximate
02:34AM -22.7715 160.8890 235° Southwest  Level FlightAware Approximate
02:35AM -22.8080 160.8321 235° Southwest  Level FlightAware Approximate
02:36AM -22.8444 160.7751 235° Southwest  Level FlightAware Approximate
02:37AM -22.8808 160.7181 235° Southwest  Level FlightAware Approximate
02:38AM -22.9172 160.6610 235° Southwest  Level FlightAware Approximate
02:39AM -22.9536 160.6039 235° Southwest  Level FlightAware Approximate
02:40AM -22.9900 160.5468 235° Southwest  Level FlightAware Approximate
02:41AM -23.0263 160.4897 235° Southwest  Level FlightAware Approximate
02:42AM -23.0626 160.4325 235° Southwest  Level FlightAware Approximate
02:43AM -23.0989 160.3753 235° Southwest  Level FlightAware Approximate
02:44AM -23.1352 160.3181 235° Southwest  Level FlightAware Approximate
02:45AM -23.1715 160.2608 235° Southwest  Level FlightAware Approximate
02:46AM -23.2077 160.2035 235° Southwest  Level FlightAware Approximate
02:47AM -23.2439 160.1462 235° Southwest  Level FlightAware Approximate
02:48AM -23.2801 160.0888 236° Southwest  Level FlightAware Approximate
02:49AM -23.3163 160.0314 236° Southwest  Level FlightAware Approximate
02:50AM -23.3525 159.9740 236° Southwest  Level FlightAware Approximate
02:51AM -23.3886 159.9166 236° Southwest  Level FlightAware Approximate
02:52AM -23.4247 159.8591 236° Southwest  Level FlightAware Approximate
02:53AM -23.4608 159.8016 236° Southwest  Level FlightAware Approximate
02:53AM -24.6210 157.9119 237° Southwest 40,000  Level Aus ATC (Calculated)
02:54AM -24.6593 157.8486 236° Southwest  Level FlightAware Approximate
02:55AM -24.6976 157.7853 236° Southwest  Level FlightAware Approximate
02:55AM -24.7836 157.6427 237° Southwest 40,000  Level Aus ATC (Calculated)
02:57AM -24.8389 157.5506 236° Southwest  Level FlightAware Approximate
02:58AM -24.8771 157.4871 236° Southwest  Level FlightAware Approximate
02:59AM -24.9153 157.4235 224° Southwest  Level Estimated
03:00AM -24.9611 157.3665 228° Southwest  Level FlightAware Approximate
03:01AM -25.0069 157.3093 228° Southwest  Level FlightAware Approximate
03:02AM -25.0527 157.2522 229° Southwest  Level FlightAware Approximate
03:03AM -25.0984 157.1949 229° Southwest  Level FlightAware Approximate
03:04AM -25.1441 157.1377 229° Southwest  Level FlightAware Approximate
03:05AM -25.1899 157.0804 229° Southwest  Level FlightAware Approximate
03:06AM -25.2355 157.0231 229° Southwest  Level FlightAware Approximate
03:07AM -25.2812 156.9657 229° Southwest  Level FlightAware Approximate
03:07AM -25.5890 156.2856 57° Northeast 40,000  Level Aus ATC (Calculated)
03:09AM -25.6836 156.1791 225° Southwest  Level FlightAware Approximate
03:10AM -25.7321 156.1245 225° Southwest  Level FlightAware Approximate
03:11AM -25.7806 156.0697 225° Southwest  Level FlightAware Approximate
03:12AM -25.8290 156.0150 225° Southwest  Level FlightAware Approximate
03:13AM -25.8775 155.9602 226° Southwest  Level FlightAware Approximate
03:14AM -25.9259 155.9053 226° Southwest  Level FlightAware Approximate
03:15AM -25.9743 155.8504 226° Southwest  Level FlightAware Approximate
03:16AM -26.0227 155.7955 226° Southwest  Level FlightAware Approximate
03:16AM -26.3961 155.3215 52° Northeast 16,500  Level Aus ATC (Calculated)
03:17AM -26.0710 155.7405 226° Southwest  Level FlightAware Approximate
03:17AM -26.4526 155.2590 52° Northeast 16,500  Level Aus ATC (Calculated)
03:18AM -25.0280 157.2280 225° Southwest 357 411 36,000 7,560 Climbing Aus ATC (RADAR)
03:19AM -26.5335 155.1693 225° Southwest  Level FlightAware Approximate
03:19AM -25.0841 157.1366 236° Southwest 354 407 36,000  Level Aus ATC (RADAR)
03:20AM -25.1081 157.0989 235° Southwest 354 407 36,000  Level Aus ATC (RADAR)
03:20AM -25.1393 157.0439 238° Southwest 356 410 36,000  Level Aus ATC (RADAR)
03:21AM -25.1845 156.9657 237° Southwest 357 411 36,000  Level Aus ATC (RADAR)
03:22AM -25.2173 156.9113 236° Southwest 358 412 36,000  Level Aus ATC (RADAR)
03:23AM -25.2536 156.8481 238° Southwest 359 413 36,000  Level Aus ATC (RADAR)
03:23AM -25.2798 156.8109 232° Southwest 359 413 36,000  Level Aus ATC (RADAR)
03:24AM -25.3130 156.7562 236° Southwest 361 415 36,000  Level Aus ATC (RADAR)
03:25AM -25.3692 156.6615 237° Southwest 363 418 36,000  Level Aus ATC (RADAR)
03:25AM -25.3980 156.6149 236° Southwest 363 418 36,000  Level Aus ATC (RADAR)
03:26AM -25.4249 156.5663 239° Southwest 363 418 36,000  Level Aus ATC (RADAR)
03:26AM -25.4627 156.5034 236° Southwest 363 418 36,000  Level Aus ATC (RADAR)
03:27AM -25.4953 156.4480 237° Southwest 363 418 36,000  Level Aus ATC (RADAR)
03:27AM -25.5278 156.3922 237° Southwest 364 419 36,000  Level Aus ATC (RADAR)
03:28AM -25.5605 156.3371 237° Southwest 364 419 36,000  Level Aus ATC (RADAR)
03:28AM -25.5910 156.2795 240° Southwest 364 419 36,000  Level Aus ATC (RADAR)
03:29AM -25.6383 156.2008 236° Southwest 363 418 36,000  Level Aus ATC (RADAR)
03:30AM -25.6608 156.1604 238° Southwest 364 419 36,000  Level Aus ATC (RADAR)
03:30AM -25.6838 156.1212 237° Southwest 365 420 36,000  Level Aus ATC (RADAR)
03:31AM -25.7225 156.0575 236° Southwest 369 425 36,000  Level Aus ATC (RADAR)
03:32AM -25.7853 155.9887 225° Southwest 378 435 36,000  Level Aus ATC (RADAR)
03:32AM -25.8301 155.9410 224° Southwest 379 436 36,000  Level Aus ATC (RADAR)
03:33AM -25.8888 155.8814 222° Southwest 380 437 36,000  Level Aus ATC (RADAR)
03:33AM -25.9197 155.8463 226° Southwest 378 435 36,000  Level Aus ATC (RADAR)
03:34AM -25.9632 155.7974 225° Southwest 379 436 36,000  Level Aus ATC (RADAR)
03:35AM -26.0452 155.7079 224° Southwest 379 436 36,000  Level Aus ATC (RADAR)
03:35AM -26.0640 155.6871 225° Southwest 379 436 36,000  Level Aus ATC (RADAR)
03:36AM -26.1083 155.6393 224° Southwest 379 436 36,000  Level Aus ATC (RADAR)
03:37AM -26.1649 155.5770 225° Southwest 379 436 36,000  Level Aus ATC (RADAR)
03:37AM -26.2085 155.5282 225° Southwest 379 436 36,000  Level Aus ATC (RADAR)
03:38AM -26.2461 155.4867 225° Southwest 379 436 36,000  Level Aus ATC (RADAR)
03:38AM -26.2978 155.4332 223° Southwest 379 436 36,000  Level Aus ATC (RADAR)
03:39AM -26.3412 155.3841 225° Southwest 380 437 36,000  Level Aus ATC (RADAR)
03:40AM -26.4148 155.3003 226° Southwest 376 433 36,000  Level Aus ATC (RADAR)
03:40AM -26.4462 155.2657 225° Southwest 376 433 36,000  Level Aus ATC (RADAR)
03:41AM -26.4959 155.2106 225° Southwest 377 434 36,000  Level Aus ATC (RADAR)
03:42AM -26.5518 155.1484 225° Southwest 377 434 36,000  Level Aus ATC (RADAR)
03:42AM -26.5954 155.1002 225° Southwest 377 434 36,000  Level Aus ATC (RADAR)
03:43AM -26.6329 155.0585 225° Southwest 377 434 36,000  Level Aus ATC (RADAR)
03:44AM -26.6889 154.9965 225° Southwest 377 434 36,000  Level Aus ATC (RADAR)
03:44AM -26.7324 154.9478 225° Southwest 379 436 36,000  Level Aus ATC (RADAR)
03:45AM -26.7944 154.8783 225° Southwest 378 435 36,000  Level Aus ATC (RADAR)
03:45AM -26.8258 154.8432 225° Southwest 381 438 36,000  Level Aus ATC (RADAR)
03:46AM -26.8695 154.7943 225° Southwest 380 437 36,000  Level Aus ATC (RADAR)
03:47AM -26.9324 154.7246 225° Southwest 380 437 36,000  Level Aus ATC (RADAR)
03:47AM -26.9762 154.6752 225° Southwest 382 440 36,000  Level Aus ATC (RADAR)
03:48AM -27.0141 154.6332 225° Southwest 383 441 36,000  Level Aus ATC (RADAR)
03:49AM -27.0576 154.5836 225° Southwest 382 440 36,000  Level Aus ATC (RADAR)
03:49AM -27.1015 154.5344 225° Southwest 382 440 36,000 -240 Level Aus ATC (RADAR)
03:50AM -27.1948 154.4283 225° Southwest 382 440 35,600 -960 Descending Aus ATC (RADAR)
03:51AM -27.2261 154.3934 225° Southwest 383 441 34,400 -3,120 Descending Aus ATC (RADAR)
03:51AM -27.2699 154.3437 225° Southwest 387 445 32,500 -2,880 Descending Aus ATC (RADAR)
03:52AM -27.3194 154.2867 226° Southwest 383 441 30,800 -2,400 Descending Aus ATC (RADAR)
03:53AM -27.3626 154.2377 225° Southwest 379 436 29,500 -2,940 Descending Aus ATC (RADAR)
03:53AM -27.4243 154.1693 225° Southwest 379 436 26,700 -3,000 Descending Aus ATC (RADAR)
03:54AM -27.4498 154.1404 225° Southwest 388 447 26,000 -1,440 Descending Aus ATC (RADAR)
03:54AM -27.4942 154.0897 225° Southwest 390 449 25,400 -1,020 Descending Aus ATC (RADAR)
03:55AM -27.5423 154.0187 233° Southwest 377 434 24,700 -1,020 Descending Aus ATC (RADAR)
03:56AM -27.5450 153.9600 267° West 364 419 24,200 -840 Descending Aus ATC (RADAR)
03:56AM -27.5165 153.8976 297° West 372 428 23,800 -720 Descending Aus ATC (RADAR)
03:57AM -27.4537 153.8591 331° Northwest 387 445 23,300 -720 Descending Aus ATC (RADAR)
03:57AM -27.3977 153.8661 North 404 465 23,000 -780 Descending Aus ATC (RADAR)
03:58AM -27.3461 153.9129 39° Northeast 411 473 22,500 -780 Descending Aus ATC (RADAR)
03:59AM -27.2960 153.9929 55° Northeast 413 475 22,000 -720 Descending Aus ATC (RADAR)
03:59AM -27.2573 154.0551 55° Northeast 413 475 21,600 -900 Descending Aus ATC (RADAR)
04:00AM -27.2666 154.1788 95° East 405 466 20,600 -960 Descending Aus ATC (RADAR)
04:01AM -27.3154 154.2123 149° Southeast 406 467 20,200 -900 Descending Aus ATC (RADAR)
04:01AM -27.3599 154.2115 181° South 398 458 19,800 -1,140 Descending Aus ATC (RADAR)
04:02AM -27.4084 154.1827 208° Southwest 347 399 19,100 -1,620 Descending Aus ATC (RADAR)
04:03AM -27.4679 154.1179 224° Southwest 324 373 17,400 -1,680 Descending Aus ATC (RADAR)
04:03AM -27.5033 154.0778 225° Southwest 310 357 16,600 -1,380 Descending Aus ATC (RADAR)
04:04AM -27.5113 154.0093 262° West 272 313 15,500 -1,320 Descending Aus ATC (RADAR)
04:05AM -27.5031 153.9619 281° West 261 300 14,800 -1,200 Descending Aus ATC (RADAR)
04:06AM -27.4909 153.8848 280° West 242 278 13,600 -1,140 Descending Aus ATC (RADAR)
04:06AM -27.4857 153.8534 280° West 241 277 13,200 -1,140 Descending Aus ATC (RADAR)
04:07AM -27.4785 153.8093 280° West 244 281 12,500 -1,200 Descending Aus ATC (RADAR)
04:07AM -27.4688 153.7508 281° West 251 289 11,600 -1,140 Descending Aus ATC (RADAR)
04:08AM -27.4610 153.7053 281° West 254 292 11,000 -1,140 Descending Aus ATC (RADAR)
04:09AM -27.4513 153.6466 281° West 253 291 10,100 -1,200 Descending Aus ATC (RADAR)
04:09AM -27.4461 153.6146 280° West 250 288 9,600 -1,200 Descending Aus ATC (RADAR)
04:10AM -27.4390 153.5715 281° West 237 273 8,900 -1,080 Descending Aus ATC (RADAR)
04:11AM -27.4317 153.4971 276° West 243 280 7,900 -960 Descending Aus ATC (RADAR)
04:11AM -27.4409 153.4776 242° Southwest 257 296 7,700 -840 Descending Aus ATC (RADAR)
04:12AM -27.4581 153.4391 243° Southwest 271 312 7,300 -780 Descending Aus ATC (RADAR)
04:12AM -27.4892 153.3691 243° Southwest 270 311 6,600 -780 Descending Aus ATC (RADAR)
04:13AM -27.5058 153.3313 244° Southwest 268 308 6,200 -840 Descending Aus ATC (RADAR)
04:14AM -27.5301 153.2760 244° Southwest 260 299 5,600 -780 Descending Aus ATC (RADAR)
04:14AM -27.5469 153.2422 241° Southwest 252 290 5,300 -660 Descending Aus ATC (RADAR)
04:15AM -27.5804 153.2150 216° Southwest 254 292 4,900 -600 Descending Aus ATC (RADAR)
04:16AM -27.6450 153.1597 217° Southwest 254 292 4,300 -660 Descending Aus ATC (RADAR)
04:16AM -27.6641 153.1354 228° Southwest 249 287 3,900 -300 Descending Aus ATC (RADAR)
04:17AM -27.6569 153.0946 281° West 229 264 4,000 60 Climbing Aus ATC (RADAR)
04:18AM -27.6347 153.0619 307° West 195 224 4,000 -300 Level Aus ATC (RADAR)
04:18AM -27.6104 153.0472 332° Northwest 178 205 3,700 -540 Descending Aus ATC (RADAR)
04:19AM -27.5708 153.0393 350° North 172 198 3,300 -600 Descending Aus ATC (RADAR)
04:19AM -27.5524 153.0352 349° North 165 190 3,000 -540 Descending Aus ATC (RADAR)
04:20AM -27.5287 153.0458 22° Northeast 155 178 2,800 -660 Descending Aus ATC (RADAR)
04:21AM -27.4912 153.0678 28° Northeast 149 171 2,000 -780 Descending Aus ATC (RADAR)
04:21AM -27.4768 153.0759 26° Northeast 142 163 1,700 -840 Descending Aus ATC (RADAR)
04:22AM -27.4558 153.0884 28° Northeast 144 166 1,200 -780 Descending Aus ATC (RADAR)
04:23AM -27.4371 153.0986 26° Northeast 129 148 800 -720 Descending Aus ATC (RADAR)
04:23AM -27.4185 153.1095 27° Northeast 130 150 400 -720 Descending Aus ATC (RADAR)